createdAt,value
2018-08-19T00:00:22.820Z,7.10
2018-08-19T00:02:53.618Z,7.87
2018-08-19T00:05:21.140Z,7.23
2018-08-19T00:07:48.849Z,7.60
2018-08-19T00:10:21.231Z,7.90
2018-08-19T00:12:48.809Z,6.20
2018-08-19T00:15:16.330Z,6.27
2018-08-19T00:17:44.068Z,5.97
2018-08-19T00:20:12.355Z,6.07
2018-08-19T00:22:39.827Z,7.97
2018-08-19T00:25:08.431Z,6.60
2018-08-19T00:27:37.018Z,7.37
2018-08-19T00:30:06.856Z,6.77
2018-08-19T00:32:34.772Z,7.00
2018-08-19T00:35:02.945Z,6.63
2018-08-19T00:37:30.420Z,6.90
2018-08-19T00:40:09.469Z,6.67
2018-08-19T00:42:36.982Z,6.77
2018-08-19T00:45:04.521Z,6.10
2018-08-19T00:47:32.004Z,6.70
2018-08-19T00:50:01.856Z,5.80
2018-08-19T00:52:29.354Z,5.70
2018-08-19T00:54:56.861Z,5.70
2018-08-19T00:57:24.290Z,6.33
2018-08-19T00:59:51.798Z,6.10
2018-08-19T01:02:19.262Z,5.63
2018-08-19T01:04:46.907Z,5.20
2018-08-19T01:07:14.349Z,5.90
2018-08-19T01:09:41.906Z,6.13
2018-08-19T01:12:09.450Z,5.60
2018-08-19T01:14:36.900Z,5.87
2018-08-19T01:17:04.410Z,5.37
2018-08-19T01:19:31.883Z,5.90
2018-08-19T01:21:59.390Z,5.30
2018-08-19T01:24:26.782Z,5.03
2018-08-19T01:26:54.275Z,4.57
2018-08-19T01:29:33.296Z,5.57
2018-08-19T01:32:08.395Z,5.00
2018-08-19T01:34:35.910Z,5.70
2018-08-19T01:37:03.394Z,4.70
2018-08-19T01:39:30.929Z,5.20
2018-08-19T01:41:58.375Z,5.17
2018-08-19T01:44:25.897Z,5.17
2018-08-19T01:46:53.406Z,5.27
2018-08-19T01:49:20.790Z,4.40
2018-08-19T01:51:48.297Z,4.00
2018-08-19T01:54:18.935Z,4.20
2018-08-19T01:56:49.995Z,4.87
2018-08-19T01:59:17.491Z,4.67
2018-08-19T02:01:56.873Z,4.80
2018-08-19T02:04:24.569Z,4.90
2018-08-19T02:06:52.096Z,4.27
2018-08-19T02:09:20.130Z,3.87
2018-08-19T02:11:51.302Z,4.00
2018-08-19T02:14:19.476Z,3.67
2018-08-19T02:16:47.767Z,3.80
2018-08-19T02:19:15.194Z,3.50
2018-08-19T02:21:43.353Z,3.93
2018-08-19T02:24:11.655Z,3.13
2018-08-19T02:26:39.144Z,3.90
2018-08-19T02:29:25.452Z,3.30
2018-08-19T02:31:58.515Z,3.83
2018-08-19T02:34:41.880Z,3.57
2018-08-19T02:37:12.410Z,3.10
2018-08-19T02:39:41.787Z,3.73
2018-08-19T02:42:23.081Z,2.80
2018-08-19T02:44:52.225Z,3.20
2018-08-19T02:47:19.734Z,2.70
2018-08-19T02:49:47.257Z,3.10
2018-08-19T02:52:20.348Z,3.20
2018-08-19T02:54:47.839Z,2.67
2018-08-19T02:57:15.233Z,3.67
2018-08-19T02:59:42.763Z,3.30
2018-08-19T03:02:23.498Z,3.90
2018-08-19T03:04:51.995Z,2.83
2018-08-19T03:07:19.820Z,3.63
2018-08-19T03:09:49.900Z,3.20
2018-08-19T03:12:17.406Z,3.20
2018-08-19T03:14:44.963Z,3.27
2018-08-19T03:17:12.466Z,3.60
2018-08-19T03:19:39.933Z,2.77
2018-08-19T03:22:07.495Z,3.60
2018-08-19T03:24:34.888Z,3.03
2018-08-19T03:27:02.363Z,3.20
2018-08-19T03:29:30.825Z,3.03
2018-08-19T03:32:00.550Z,2.80
2018-08-19T03:34:29.258Z,2.80
2018-08-19T03:36:58.024Z,2.77
2018-08-19T03:39:25.465Z,2.80
2018-08-19T03:41:52.914Z,3.03
2018-08-19T03:44:20.380Z,2.57
2018-08-19T03:46:47.772Z,2.93
2018-08-19T03:49:15.397Z,2.60
2018-08-19T03:51:43.002Z,2.10
2018-08-19T03:54:10.487Z,2.17
2018-08-19T03:56:37.985Z,2.90
2018-08-19T03:59:06.055Z,2.33
2018-08-19T04:01:42.697Z,2.60
2018-08-19T04:04:11.541Z,2.50
2018-08-19T04:06:39.801Z,2.57
2018-08-19T04:09:07.349Z,1.87
2018-08-19T04:11:34.947Z,2.30
2018-08-19T04:14:02.857Z,2.23
2018-08-19T04:16:30.317Z,2.13
2018-08-19T04:19:05.296Z,1.80
2018-08-19T04:21:32.728Z,2.33
2018-08-19T04:24:00.261Z,2.03
2018-08-19T04:26:28.696Z,2.30
2018-08-19T04:28:56.214Z,2.03
2018-08-19T04:31:24.110Z,1.97
2018-08-19T04:33:52.095Z,2.00
2018-08-19T04:36:21.731Z,2.30
2018-08-19T04:38:49.290Z,2.00
2018-08-19T04:41:16.946Z,1.93
2018-08-19T04:43:45.120Z,2.47
2018-08-19T04:46:12.607Z,2.40
2018-08-19T04:48:40.149Z,1.90
2018-08-19T04:51:07.623Z,2.40
2018-08-19T04:53:35.098Z,2.53
2018-08-19T04:56:02.695Z,2.17
2018-08-19T04:58:30.113Z,2.53
2018-08-19T05:00:57.608Z,3.23
2018-08-19T05:03:25.015Z,2.30
2018-08-19T05:05:52.583Z,2.40
2018-08-19T05:08:20.101Z,2.13
2018-08-19T05:10:47.523Z,2.43
2018-08-19T05:13:14.929Z,2.23
2018-08-19T05:15:42.688Z,2.57
2018-08-19T05:18:10.181Z,2.60
2018-08-19T05:20:37.830Z,2.20
2018-08-19T05:23:05.791Z,2.50
2018-08-19T05:25:37.159Z,2.63
2018-08-19T05:28:05.631Z,2.17
2018-08-19T05:30:34.130Z,2.40
2018-08-19T05:33:02.718Z,2.30
2018-08-19T05:35:31.161Z,2.20
2018-08-19T05:37:59.713Z,2.40
2018-08-19T05:40:27.710Z,2.20
2018-08-19T05:42:55.334Z,2.53
2018-08-19T05:45:22.841Z,2.27
2018-08-19T05:48:02.294Z,2.33
2018-08-19T05:50:29.777Z,1.97
2018-08-19T05:52:57.246Z,2.00
2018-08-19T05:55:24.786Z,2.47
2018-08-19T05:57:52.219Z,2.13
2018-08-19T06:00:22.209Z,2.00
2018-08-19T06:02:50.213Z,2.00
2018-08-19T06:05:17.668Z,2.27
2018-08-19T06:07:45.215Z,2.00
2018-08-19T06:10:12.675Z,2.67
2018-08-19T06:12:40.215Z,2.23
2018-08-19T06:15:07.682Z,2.17
2018-08-19T06:17:35.200Z,2.00
2018-08-19T06:20:02.769Z,2.27
2018-08-19T06:22:35.832Z,2.10
2018-08-19T06:25:03.505Z,2.80
2018-08-19T06:27:36.575Z,2.10
2018-08-19T06:30:05.101Z,2.40
2018-08-19T06:32:32.713Z,1.50
2018-08-19T06:35:00.511Z,1.63
2018-08-19T06:37:27.726Z,1.97
2018-08-19T06:39:55.271Z,2.07
2018-08-19T06:42:22.733Z,2.30
2018-08-19T06:44:50.524Z,2.80
2018-08-19T06:47:18.076Z,1.87
2018-08-19T06:49:51.325Z,1.90
2018-08-19T06:52:18.859Z,1.50
2018-08-19T06:54:46.389Z,2.40
2018-08-19T06:57:13.961Z,2.17
2018-08-19T06:59:41.523Z,2.37
2018-08-19T07:02:09.149Z,2.27
2018-08-19T07:04:40.708Z,2.10
2018-08-19T07:07:10.316Z,2.30
2018-08-19T07:09:38.102Z,2.23
2018-08-19T07:12:13.602Z,1.97
2018-08-19T07:14:41.168Z,1.93
2018-08-19T07:17:08.743Z,1.93
2018-08-19T07:19:36.750Z,2.40
2018-08-19T07:22:06.476Z,2.17
2018-08-19T07:24:35.191Z,2.37
2018-08-19T07:27:02.822Z,2.37
2018-08-19T07:29:30.956Z,2.17
2018-08-19T07:31:58.684Z,2.30
2018-08-19T07:34:26.307Z,2.40
2018-08-19T07:36:55.360Z,2.33
2018-08-19T07:39:22.797Z,1.70
2018-08-19T07:41:50.299Z,2.07
2018-08-19T07:44:17.727Z,2.03
2018-08-19T07:46:45.337Z,1.90
2018-08-19T07:49:12.815Z,1.70
2018-08-19T07:51:40.283Z,1.60
2018-08-19T07:54:07.715Z,2.07
2018-08-19T07:56:35.692Z,2.03
2018-08-19T07:59:08.849Z,1.60
2018-08-19T08:01:37.553Z,2.23
2018-08-19T08:04:05.687Z,2.13
2018-08-19T08:06:33.903Z,2.03
2018-08-19T08:09:04.476Z,2.17
2018-08-19T08:11:32.011Z,2.03
2018-08-19T08:13:59.685Z,1.83
2018-08-19T08:16:27.116Z,2.10
2018-08-19T08:18:54.690Z,2.27
2018-08-19T08:21:25.906Z,2.10
2018-08-19T08:23:53.379Z,1.93
2018-08-19T08:26:20.775Z,1.80
2018-08-19T08:28:54.538Z,1.80
2018-08-19T08:31:21.936Z,1.97
2018-08-19T08:33:49.481Z,2.37
2018-08-19T08:36:16.954Z,1.80
2018-08-19T08:38:44.468Z,2.60
2018-08-19T08:41:12.026Z,1.77
2018-08-19T08:43:39.502Z,2.10
2018-08-19T08:46:06.959Z,1.93
2018-08-19T08:48:34.723Z,2.10
2018-08-19T08:51:02.349Z,2.00
2018-08-19T08:53:35.958Z,2.00
2018-08-19T08:56:03.961Z,1.87
2018-08-19T08:58:31.847Z,2.00
2018-08-19T09:00:59.634Z,2.10
2018-08-19T09:03:27.169Z,2.17
2018-08-19T09:05:54.610Z,2.00
2018-08-19T09:08:22.125Z,2.20
2018-08-19T09:10:50.205Z,1.90
2018-08-19T09:13:17.676Z,1.90
2018-08-19T09:15:45.092Z,2.47
2018-08-19T09:18:12.690Z,1.73
2018-08-19T09:20:40.106Z,1.93
2018-08-19T09:23:07.731Z,2.53
2018-08-19T09:25:35.144Z,1.80
2018-08-19T09:28:02.649Z,1.90
2018-08-19T09:30:37.196Z,2.00
2018-08-19T09:33:04.940Z,2.10
2018-08-19T09:35:34.701Z,1.77
2018-08-19T09:38:10.183Z,1.80
2018-08-19T09:40:37.698Z,2.20
2018-08-19T09:43:05.926Z,2.43
2018-08-19T09:45:33.438Z,2.20
2018-08-19T09:48:01.811Z,2.30
2018-08-19T09:50:29.202Z,2.00
2018-08-19T09:52:56.753Z,2.50
2018-08-19T09:55:29.921Z,2.70
2018-08-19T09:57:57.485Z,3.20
2018-08-19T10:00:27.811Z,2.50
2018-08-19T10:02:55.281Z,3.30
2018-08-19T10:05:24.923Z,3.53
2018-08-19T10:07:54.059Z,3.53
2018-08-19T10:10:22.498Z,3.13
2018-08-19T10:12:50.061Z,2.63
2018-08-19T10:15:17.582Z,2.83
2018-08-19T10:17:45.140Z,2.73
2018-08-19T10:20:12.660Z,3.10
2018-08-19T10:22:41.245Z,3.00
2018-08-19T10:25:23.697Z,2.50
2018-08-19T10:27:52.513Z,2.97
2018-08-19T10:30:20.471Z,1.90
2018-08-19T10:32:56.212Z,2.17
2018-08-19T10:35:26.362Z,2.40
2018-08-19T10:37:53.780Z,2.37
2018-08-19T10:40:21.250Z,2.10
2018-08-19T10:42:48.790Z,1.80
2018-08-19T10:45:22.665Z,2.53
2018-08-19T10:47:50.087Z,2.27
2018-08-19T10:50:17.556Z,2.30
2018-08-19T10:52:45.061Z,2.07
2018-08-19T10:55:13.261Z,3.00
2018-08-19T10:57:40.712Z,2.27
2018-08-19T11:00:16.867Z,1.90
2018-08-19T11:02:44.457Z,2.37
2018-08-19T11:05:11.906Z,1.90
2018-08-19T11:07:39.355Z,2.30
2018-08-19T11:10:18.216Z,2.30
2018-08-19T11:12:47.797Z,2.37
2018-08-19T11:15:27.390Z,2.20
2018-08-19T11:17:55.430Z,1.93
2018-08-19T11:20:28.736Z,2.10
2018-08-19T11:22:57.447Z,1.93
2018-08-19T11:25:27.590Z,2.17
2018-08-19T11:27:55.643Z,2.50
2018-08-19T11:30:24.756Z,2.00
2018-08-19T11:32:52.801Z,2.30
2018-08-19T11:35:20.923Z,2.50
2018-08-19T11:37:48.476Z,2.40
2018-08-19T11:40:15.979Z,2.30
2018-08-19T11:42:43.445Z,3.17
2018-08-19T11:45:10.908Z,1.90
2018-08-19T11:47:39.805Z,2.53
2018-08-19T11:50:07.236Z,2.70
2018-08-19T11:52:34.752Z,2.20
2018-08-19T11:55:02.287Z,2.47
2018-08-19T11:57:29.805Z,2.00
2018-08-19T11:59:57.273Z,2.30
2018-08-19T12:02:24.741Z,2.10
2018-08-19T12:04:52.214Z,2.87
2018-08-19T12:07:19.908Z,2.07
2018-08-19T12:09:55.127Z,2.93
2018-08-19T12:12:39.861Z,2.03
2018-08-19T12:15:07.435Z,3.40
2018-08-19T12:17:34.856Z,2.97
2018-08-19T12:20:02.313Z,3.23
2018-08-19T12:22:30.824Z,3.13
2018-08-19T12:24:58.352Z,3.07
2018-08-19T12:27:25.829Z,3.17
2018-08-19T12:30:00.746Z,2.70
2018-08-19T12:32:28.767Z,2.90
2018-08-19T12:34:59.415Z,3.23
2018-08-19T12:37:28.261Z,2.90
2018-08-19T12:39:56.305Z,3.10
2018-08-19T12:42:24.282Z,3.50
2018-08-19T12:44:57.401Z,3.50
2018-08-19T12:47:25.795Z,4.60
2018-08-19T12:49:57.371Z,4.27
2018-08-19T12:52:27.165Z,3.70
2018-08-19T12:55:00.525Z,3.63
2018-08-19T12:57:28.054Z,4.20
2018-08-19T13:00:03.973Z,4.43
2018-08-19T13:02:32.617Z,3.90
2018-08-19T13:05:00.056Z,3.70
2018-08-19T13:07:27.504Z,3.70
2018-08-19T13:09:54.981Z,4.90
2018-08-19T13:12:22.412Z,5.23
2018-08-19T13:14:49.964Z,4.57
2018-08-19T13:17:17.406Z,3.97
2018-08-19T13:19:50.793Z,4.00
2018-08-19T13:22:18.236Z,3.80
2018-08-19T13:24:45.709Z,3.57
2018-08-19T13:27:13.138Z,3.60
2018-08-19T13:29:40.876Z,3.97
2018-08-19T13:32:08.841Z,3.20
2018-08-19T13:34:36.662Z,3.37
2018-08-19T13:37:04.126Z,4.30
2018-08-19T13:39:31.593Z,3.77
2018-08-19T13:41:59.267Z,4.13
2018-08-19T13:44:27.140Z,4.97
2018-08-19T13:46:54.970Z,5.50
2018-08-19T13:49:24.056Z,4.70
2018-08-19T13:51:52.063Z,5.53
2018-08-19T13:54:20.553Z,5.17
2018-08-19T13:56:48.268Z,5.07
2018-08-19T13:59:16.712Z,4.90
2018-08-19T14:01:44.191Z,4.47
2018-08-19T14:04:12.404Z,4.30
2018-08-19T14:06:41.432Z,3.97
2018-08-19T14:09:09.957Z,4.63
2018-08-19T14:11:38.454Z,4.40
2018-08-19T14:14:06.301Z,4.37
2018-08-19T14:16:34.548Z,4.87
2018-08-19T14:19:02.644Z,4.27
2018-08-19T14:21:30.849Z,4.63
2018-08-19T14:23:59.328Z,4.67
2018-08-19T14:26:27.014Z,4.63
2018-08-19T14:28:54.748Z,4.33
2018-08-19T14:31:22.505Z,4.03
2018-08-19T14:33:50.064Z,4.47
2018-08-19T14:36:17.644Z,4.43
2018-08-19T14:38:45.146Z,3.70
2018-08-19T14:41:12.807Z,4.13
2018-08-19T14:43:57.592Z,4.00
2018-08-19T14:46:26.160Z,5.07
2018-08-19T14:48:57.084Z,4.20
2018-08-19T14:51:25.448Z,3.73
2018-08-19T14:53:58.223Z,3.97
2018-08-19T14:56:26.012Z,4.23
2018-08-19T14:58:53.737Z,3.50
2018-08-19T15:01:21.458Z,3.30
2018-08-19T15:03:54.719Z,3.53
2018-08-19T15:06:22.447Z,3.10
2018-08-19T15:08:50.187Z,4.13
2018-08-19T15:11:17.949Z,3.73
2018-08-19T15:13:46.948Z,3.57
2018-08-19T15:16:14.637Z,3.93
2018-08-19T15:18:42.139Z,4.17
2018-08-19T15:21:10.100Z,3.90
2018-08-19T15:23:37.838Z,3.90
2018-08-19T15:26:05.632Z,3.97
2018-08-19T15:28:33.394Z,3.83
2018-08-19T15:31:01.197Z,4.23
2018-08-19T15:33:28.822Z,4.27
2018-08-19T15:35:56.348Z,4.33
2018-08-19T15:38:23.761Z,3.53
2018-08-19T15:40:51.353Z,7.10
2018-08-19T15:43:18.735Z,4.50
2018-08-19T15:45:46.243Z,4.10
2018-08-19T15:48:13.750Z,4.10
2018-08-19T15:50:41.199Z,3.50
2018-08-19T15:53:09.578Z,3.10
2018-08-19T15:55:37.749Z,3.60
2018-08-19T15:58:05.329Z,3.00
2018-08-19T16:00:36.145Z,3.47
2018-08-19T16:03:03.721Z,3.03
2018-08-19T16:05:31.234Z,3.60
2018-08-19T16:07:58.692Z,3.23
2018-08-19T16:10:26.172Z,3.10
2018-08-19T16:12:53.684Z,3.20
2018-08-19T16:15:22.177Z,3.57
2018-08-19T16:17:49.755Z,3.50
2018-08-19T16:20:17.224Z,3.33
2018-08-19T16:22:44.704Z,2.90
2018-08-19T16:25:12.218Z,2.87
2018-08-19T16:27:39.705Z,3.23
2018-08-19T16:30:07.269Z,3.13
2018-08-19T16:32:34.747Z,3.30
2018-08-19T16:35:02.219Z,2.77
2018-08-19T16:37:29.750Z,3.13
2018-08-19T16:39:57.142Z,2.80
2018-08-19T16:42:24.744Z,3.20
2018-08-19T16:44:52.372Z,2.93
2018-08-19T16:47:19.728Z,2.77
2018-08-19T16:49:47.134Z,2.73
2018-08-19T16:52:14.670Z,2.97
2018-08-19T16:54:42.086Z,2.40
2018-08-19T16:57:09.721Z,3.13
2018-08-19T16:59:37.167Z,2.33
2018-08-19T17:02:04.898Z,2.80
2018-08-19T17:04:32.548Z,2.57
2018-08-19T17:07:00.318Z,2.90
2018-08-19T17:09:28.101Z,2.77
2018-08-19T17:11:55.680Z,2.70
2018-08-19T17:14:23.200Z,2.50
2018-08-19T17:16:50.887Z,2.40
2018-08-19T17:19:18.389Z,2.73
2018-08-19T17:21:45.769Z,3.13
2018-08-19T17:24:13.204Z,2.53
2018-08-19T17:26:40.803Z,2.30
2018-08-19T17:29:14.036Z,2.10
2018-08-19T17:31:41.478Z,2.50
2018-08-19T17:34:16.540Z,2.40
2018-08-19T17:36:44.310Z,2.60
2018-08-19T17:39:21.664Z,2.03
2018-08-19T17:41:50.052Z,2.47
2018-08-19T17:44:17.543Z,2.30
2018-08-19T17:46:44.958Z,2.60
2018-08-19T17:49:17.171Z,2.03
2018-08-19T17:51:44.689Z,2.60
2018-08-19T17:54:21.711Z,2.13
2018-08-19T17:56:49.686Z,2.30
2018-08-19T17:59:17.274Z,2.90
2018-08-19T18:01:44.766Z,3.30
2018-08-19T18:04:12.188Z,3.07
2018-08-19T18:06:39.709Z,3.87
2018-08-19T18:11:38.285Z,3.17
2018-08-19T18:14:05.819Z,3.83
2018-08-19T18:16:33.376Z,3.37
2018-08-19T18:19:00.977Z,2.90
2018-08-19T18:21:28.925Z,2.83
2018-08-19T18:23:56.319Z,2.77
2018-08-19T18:26:23.784Z,2.93
2018-08-19T18:28:51.253Z,2.80
2018-08-19T18:31:20.113Z,2.60
2018-08-19T18:33:56.298Z,3.33
2018-08-19T18:36:24.945Z,2.33
2018-08-19T18:38:52.443Z,2.80
2018-08-19T18:41:26.553Z,2.87
2018-08-19T18:43:55.565Z,2.80
2018-08-19T18:46:23.546Z,2.47
2018-08-19T18:48:58.782Z,2.50
2018-08-19T18:51:26.605Z,3.07
2018-08-19T18:53:54.183Z,2.70
2018-08-19T18:56:21.660Z,2.90
2018-08-19T18:58:49.154Z,2.67
2018-08-19T19:01:16.586Z,2.57
2018-08-19T19:03:43.993Z,2.77
2018-08-19T19:06:11.455Z,3.20
2018-08-19T19:08:38.871Z,2.50
2018-08-19T19:11:06.310Z,3.10
2018-08-19T19:13:34.746Z,3.07
2018-08-19T19:16:02.215Z,3.03
2018-08-19T19:18:29.739Z,2.93
2018-08-19T19:21:02.877Z,2.63
2018-08-19T19:23:31.794Z,2.97
2018-08-19T19:25:59.712Z,3.10
2018-08-19T19:28:27.247Z,2.53
2018-08-19T19:31:00.940Z,2.70
2018-08-19T19:33:28.369Z,3.10
2018-08-19T19:35:58.214Z,3.23
2018-08-19T19:38:25.661Z,3.50
2018-08-19T19:40:57.725Z,3.10
2018-08-19T19:43:25.304Z,3.30
2018-08-19T19:45:52.731Z,3.20
2018-08-19T19:48:20.188Z,3.10
2018-08-19T19:50:47.698Z,3.73
2018-08-19T19:53:15.228Z,3.20
2018-08-19T19:55:42.759Z,4.07
2018-08-19T19:58:10.151Z,3.50
2018-08-19T20:00:50.864Z,3.40
2018-08-19T20:03:18.644Z,3.37
2018-08-19T20:05:46.086Z,2.90
2018-08-19T20:08:13.572Z,2.90
2018-08-19T20:10:40.997Z,3.13
2018-08-19T20:13:08.575Z,2.90
2018-08-19T20:15:36.105Z,3.33
2018-08-19T20:18:03.533Z,3.30
2018-08-19T20:20:31.008Z,2.90
2018-08-19T20:22:58.668Z,2.80
2018-08-19T20:25:26.075Z,2.80
2018-08-19T20:27:59.368Z,2.43
2018-08-19T20:30:26.821Z,3.53
2018-08-19T20:32:54.361Z,2.63
2018-08-19T20:35:21.760Z,2.90
2018-08-19T20:37:49.226Z,3.13
2018-08-19T20:40:16.721Z,3.13
2018-08-19T20:42:44.250Z,3.27
2018-08-19T20:45:11.778Z,3.17
2018-08-19T20:47:40.148Z,3.63
2018-08-19T20:50:07.583Z,3.17
2018-08-19T20:52:41.394Z,3.30
2018-08-19T20:55:09.309Z,2.90
2018-08-19T20:57:36.799Z,2.90
2018-08-19T21:00:05.871Z,2.73
2018-08-19T21:02:33.281Z,3.20
2018-08-19T21:05:00.724Z,3.00
2018-08-19T21:07:28.557Z,2.70
2018-08-19T21:09:56.089Z,2.70
2018-08-19T21:12:23.468Z,3.70
2018-08-19T21:14:50.915Z,3.23
2018-08-19T21:17:18.286Z,3.17
2018-08-19T21:19:45.696Z,3.33
2018-08-19T21:22:13.182Z,3.40
2018-08-19T21:24:40.621Z,2.97
2018-08-19T21:27:08.148Z,3.07
2018-08-19T21:29:35.572Z,3.17
2018-08-19T21:32:03.126Z,3.80
2018-08-19T21:34:30.586Z,3.10
2018-08-19T21:36:58.844Z,3.10
2018-08-19T21:39:26.389Z,2.53
2018-08-19T21:41:54.694Z,3.30
2018-08-19T21:44:22.146Z,2.77
2018-08-19T21:46:49.555Z,3.07
2018-08-19T21:49:17.188Z,2.73
2018-08-19T21:51:44.796Z,3.70
2018-08-19T21:54:13.580Z,3.10
2018-08-19T21:56:41.429Z,3.57
2018-08-19T21:59:25.026Z,3.27
2018-08-19T22:01:57.954Z,2.70
2018-08-19T22:04:25.762Z,3.00
2018-08-19T22:06:53.581Z,3.70
2018-08-19T22:09:32.866Z,4.37
2018-08-19T22:12:01.251Z,3.87
2018-08-19T22:14:30.482Z,3.63
2018-08-19T22:17:08.240Z,3.80
2018-08-19T22:19:35.973Z,3.70
2018-08-19T22:22:03.725Z,3.17
2018-08-19T22:24:31.428Z,3.60
2018-08-19T22:27:04.738Z,3.43
2018-08-19T22:29:32.148Z,3.37
2018-08-19T22:31:59.564Z,3.47
2018-08-19T22:34:26.997Z,3.10
2018-08-19T22:36:54.480Z,3.53
2018-08-19T22:39:21.940Z,2.70
2018-08-19T22:41:50.819Z,3.40
2018-08-19T22:44:18.491Z,3.40
2018-08-19T22:46:46.050Z,2.63
2018-08-19T22:49:13.533Z,3.43
2018-08-19T22:51:41.005Z,3.17
2018-08-19T22:54:08.428Z,3.73
2018-08-19T22:56:35.912Z,2.90
2018-08-19T22:59:03.437Z,2.90
2018-08-19T23:01:36.632Z,2.50
2018-08-19T23:04:04.235Z,3.30
2018-08-19T23:06:32.342Z,3.03
2018-08-19T23:09:00.192Z,3.60
2018-08-19T23:11:34.365Z,3.93
2018-08-19T23:14:13.640Z,3.43
2018-08-19T23:16:41.320Z,3.30
2018-08-19T23:19:08.731Z,4.20
2018-08-19T23:21:36.166Z,3.50
2018-08-19T23:24:03.640Z,3.27
2018-08-19T23:26:31.072Z,3.30
2018-08-19T23:28:58.577Z,3.17
2018-08-19T23:31:26.066Z,3.20
2018-08-19T23:33:53.672Z,3.50
2018-08-19T23:36:21.049Z,3.80
2018-08-19T23:38:48.541Z,4.10
2018-08-19T23:41:15.985Z,3.37
2018-08-19T23:43:43.434Z,3.70
2018-08-19T23:46:10.946Z,3.37
2018-08-19T23:48:38.522Z,3.77
2018-08-19T23:51:07.686Z,3.40
2018-08-19T23:53:35.105Z,3.70
2018-08-19T23:56:02.565Z,3.40
2018-08-19T23:58:30.023Z,3.33
